Terminal Aerodrome Forecast
Issued by NWS

Home | Current Version | Previous Version | Text Only | Print | Product List | Glossary On
Versions: 1 2 3 4 5 6 7 8 9 10 11 12
335
FTUS46 KHNX 292320
TAFVIS
TAF
KVIS 292320Z 3000/3024 VRB04KT P6SM SKC
     FM300600 31006KT P6SM SCT120
     FM301500 29010KT P6SM SCT060 BKN120
      TEMPO 3016/3020 -RA BKN060
     FM302000 30012G22KT P6SM -SHRA FEW040 BKN060=

USA.gov is the U.S. government's official web portal to all federal, state and local government web resources and services.